Valley Forge, Pennsylvania
Current Conditions -  °F | °C
As of 10:55 PM on Friday 24 Oct 2014 (Local Time) from KLOM Reporting Station
Clear Clear  
Wind Chill: 55°   Ceiling: Unl
Heat Index: 55°   Visibility: 10mi
Dew Point: 37°   Wind: 3mph
Humidity: 51%   Direction: 280°W
Pressure: 29.87"   Gusts: NA
Location:  40.08°N, 75.36°W
Report Text: KLOM 250255Z AUTO 28003KT 10SM CLR 13/03 A2987 RMK AO1
Loading
Personal Weather Stations






























Interactive Weather Map
Tropical Storm Tracking
New forecast layout! Learn more

10-Day Weather Forecast

Advertisements
Track Severe Weather on mobile